Time;durP1;ratioP1;P1;durP2;ratioP2;P2;SDS_P1;SDS_P2;PMS_P1;PMS_P2;Temp;Humidity;BMP_temperature;BMP_pressure;BME280_temperature;BME280_humidity;BME280_pressure;Samples;Min_cycle;Max_cycle;Signal;HPM_P1;HPM_P2
2022/02/23 00:00:28;;;;;;;13.25;2.78;;;;;;;-142.75;100.00;78474.25;5070747;28;20020;-68
2022/02/23 00:02:54;;;;;;;23.05;2.90;;;;;;;-142.75;100.00;78480.16;5070755;28;20563;-67
2022/02/23 00:05:19;;;;;;;17.02;2.63;;;;;;;-142.75;100.00;78470.31;5070633;28;20379;-68
2022/02/23 00:07:44;;;;;;;12.68;3.08;;;;;;;-142.75;100.00;78474.25;5052746;28;20028;-70
2022/02/23 00:10:10;;;;;;;23.40;2.92;;;;;;;-142.75;100.00;78493.97;5052128;28;20055;-68
2022/02/23 00:12:36;;;;;;;19.83;3.70;;;;;;;-142.75;100.00;78484.09;5070711;28;20039;-67
2022/02/23 00:15:01;;;;;;;12.95;2.58;;;;;;;-142.75;100.00;78490.00;5070644;28;20036;-70
2022/02/23 00:17:26;;;;;;;19.05;2.95;;;;;;;-142.75;100.00;78480.16;5070618;28;20107;-67
2022/02/23 00:19:52;;;;;;;13.65;2.20;;;;;;;-142.75;100.00;78482.13;5070259;28;20017;-69
2022/02/23 00:22:18;;;;;;;23.05;3.17;;;;;;;-142.75;100.00;78495.94;5070525;28;20028;-68
2022/02/23 00:24:43;;;;;;;16.02;2.58;;;;;;;-142.75;100.00;78495.94;5070619;28;20081;-68
2022/02/23 00:27:09;;;;;;;14.87;2.33;;;;;;;-142.75;100.00;78507.75;5070526;28;20036;-68
2022/02/23 00:29:35;;;;;;;10.45;2.50;;;;;;;-142.75;100.00;78503.81;5070107;28;20290;-69
2022/02/23 00:32:01;;;;;;;12.10;2.30;;;;;;;-142.75;100.00;78503.81;5070403;28;20028;-70
2022/02/23 00:34:26;;;;;;;19.33;2.97;;;;;;;-142.75;100.00;78515.63;5052576;28;20020;-67
2022/02/23 00:36:54;;;;;;;15.00;2.50;;;;;;;-142.75;100.00;78521.53;5070535;28;20044;-68
2022/02/23 00:39:20;;;;;;;14.93;3.23;;;;;;;-142.75;100.00;78523.50;5070124;28;20111;-67
2022/02/23 00:41:45;;;;;;;;;;;;;;;-142.75;100.00;78523.50;5070665;28;20040;-68
2022/02/23 00:44:11;;;;;;;15.07;2.43;;;;;;;-142.75;100.00;78531.38;5070409;28;19912;-68
2022/02/23 00:46:36;;;;;;;13.03;3.00;;;;;;;-142.75;100.00;78531.38;5070317;28;20444;-67
2022/02/23 00:49:01;;;;;;;16.80;3.00;;;;;;;-142.75;100.00;78533.34;5052132;28;20274;-69
2022/02/23 00:51:27;;;;;;;17.05;2.67;;;;;;;-142.75;100.00;78535.31;5066782;28;20339;-67
2022/02/23 00:53:52;;;;;;;14.82;2.67;;;;;;;-142.75;100.00;78549.09;5036371;28;20112;-68
2022/02/23 00:56:17;;;;;;;23.05;2.45;;;;;;;-142.75;100.00;78543.19;5054199;28;20554;-67
2022/02/23 00:58:42;;;;;;;9.10;2.27;;;;;;;-142.75;100.00;78547.13;5053906;28;20021;-68
2022/02/23 01:01:08;;;;;;;12.73;2.30;;;;;;;-142.75;100.00;78545.16;5054036;28;20629;-68
2022/02/23 01:03:33;;;;;;;10.63;2.08;;;;;;;-142.75;100.00;78549.09;5053999;28;20040;-68
2022/02/23 01:05:59;;;;;;;16.45;2.28;;;;;;;-142.75;100.00;78547.13;5054102;28;20029;-69
2022/02/23 01:08:24;;;;;;;20.23;3.22;;;;;;;-142.75;100.00;78568.78;5053736;28;20112;-67
2022/02/23 01:10:50;;;;;;;16.33;2.72;;;;;;;-142.75;100.00;78558.94;5053629;28;20075;-67
2022/02/23 01:13:15;;;;;;;18.35;2.85;;;;;;;-142.75;100.00;78566.81;5053937;28;20608;-67
2022/02/23 01:15:40;;;;;;;12.18;2.35;;;;;;;-142.75;100.00;78566.81;5053807;28;20036;-68
2022/02/23 01:18:06;;;;;;;12.52;2.90;;;;;;;-142.75;100.00;78572.72;5053543;28;20016;-68
2022/02/23 01:20:31;;;;;;;17.77;2.75;;;;;;;-142.75;100.00;78570.75;5036032;28;20024;-68
2022/02/23 01:22:59;;;;;;;19.95;2.47;;;;;;;-142.75;100.00;78572.72;5053772;28;20017;-66
2022/02/23 01:25:25;;;;;;;20.27;2.90;;;;;;;-142.75;100.00;78582.59;5053578;28;20032;-68
2022/02/23 01:27:51;;;;;;;15.50;3.17;;;;;;;-142.75;100.00;78592.44;5053332;28;20375;-66
2022/02/23 01:30:17;;;;;;;14.88;2.90;;;;;;;-142.75;100.00;78592.44;5070186;28;20027;-68
2022/02/23 01:32:43;;;;;;;23.17;3.20;;;;;;;-142.75;100.00;78594.41;5073508;28;20024;-67
2022/02/23 01:35:08;;;;;;;17.00;2.85;;;;;;;-142.75;100.00;78598.34;5055452;28;20025;-67
2022/02/23 01:37:33;;;;;;;14.27;1.88;;;;;;;-142.75;100.00;78602.28;5073419;28;20116;-67
2022/02/23 01:39:59;;;;;;;19.10;3.53;;;;;;;-142.75;100.00;78606.22;5055340;28;20032;-66
2022/02/23 01:42:24;;;;;;;21.80;3.47;;;;;;;-142.75;100.00;78612.13;5073319;28;20032;-67
2022/02/23 01:44:49;;;;;;;16.90;2.73;;;;;;;-142.75;100.00;78625.91;5055418;28;20048;-69
2022/02/23 01:47:15;;;;;;;14.83;2.30;;;;;;;-142.75;100.00;78623.94;5073070;28;20901;-68
2022/02/23 01:49:43;;;;;;;20.55;3.17;;;;;;;-142.75;100.00;78637.72;5072828;28;20291;-68
2022/02/23 01:52:09;;;;;;;17.73;3.90;;;;;;;-142.75;100.00;78629.84;5073296;28;20065;-67
2022/02/23 01:54:34;;;;;;;17.27;2.10;;;;;;;-142.75;100.00;78625.91;5055130;28;20036;-68
2022/02/23 01:56:59;;;;;;;16.50;2.15;;;;;;;-142.75;100.00;78637.72;5073040;28;20097;-67
2022/02/23 01:59:25;;;;;;;10.57;1.80;;;;;;;-142.75;100.00;78641.66;5054740;28;20394;-67
2022/02/23 02:01:52;;;;;;;16.60;2.20;;;;;;;-142.75;100.00;78643.63;5072647;28;20027;-68
2022/02/23 02:04:21;;;;;;;13.53;2.73;;;;;;;-142.75;100.00;78639.69;5072466;28;20020;-67
2022/02/23 02:06:47;;;;;;;14.53;2.50;;;;;;;-142.75;100.00;78649.53;5072980;28;20024;-67
2022/02/23 02:09:12;;;;;;;21.60;2.67;;;;;;;-142.75;100.00;78657.41;5072469;28;20085;-67
2022/02/23 02:11:38;;;;;;;13.30;1.93;;;;;;;-142.75;100.00;78657.41;5054810;28;20024;-67
2022/02/23 02:14:03;;;;;;;13.38;2.42;;;;;;;-142.75;100.00;78657.41;5072758;28;20024;-69
2022/02/23 02:16:28;;;;;;;16.27;2.85;;;;;;;-142.75;100.00;78661.34;5072600;28;20039;-67
2022/02/23 02:18:53;;;;;;;18.87;2.40;;;;;;;-142.75;100.00;78665.28;5072451;28;20025;-67
2022/02/23 02:21:19;;;;;;;15.75;2.05;;;;;;;-142.75;100.00;78667.25;5072659;28;20269;-68
2022/02/23 02:23:44;;;;;;;16.33;2.90;;;;;;;-142.75;100.00;78665.28;5072695;28;20026;-69
2022/02/23 02:26:10;;;;;;;16.77;2.45;;;;;;;-142.75;100.00;78673.19;5072586;28;20972;-68
2022/02/23 02:28:35;;;;;;;14.38;2.10;;;;;;;-142.75;100.00;78671.22;5072100;28;20025;-67
2022/02/23 02:31:00;;;;;;;11.82;2.60;;;;;;;-142.75;100.00;78679.09;5072276;28;20078;-67
2022/02/23 02:33:25;;;;;;;18.42;2.80;;;;;;;-142.75;100.00;78677.13;5072372;28;20077;-67
2022/02/23 02:35:51;;;;;;;19.27;2.77;;;;;;;-142.75;100.00;78681.06;5072355;28;20461;-67
2022/02/23 02:38:16;;;;;;;12.47;2.53;;;;;;;-142.75;100.00;78677.13;5053984;28;20267;-67
2022/02/23 02:40:41;;;;;;;18.80;2.83;;;;;;;-142.75;100.00;78663.31;5054195;28;20779;-69
2022/02/23 02:43:08;;;;;;;10.67;3.30;;;;;;;-142.75;100.00;78677.13;5072259;28;20362;-67
2022/02/23 02:45:34;;;;;;;14.27;2.47;;;;;;;-142.75;100.00;78671.22;5072003;28;20836;-67
2022/02/23 02:48:00;;;;;;;14.70;2.60;;;;;;;-142.75;100.00;78669.25;5071839;28;20028;-67
2022/02/23 02:50:25;;;;;;;13.40;2.78;;;;;;;-142.75;100.00;78679.09;5071902;28;20036;-67
2022/02/23 02:52:50;;;;;;;14.05;2.33;;;;;;;-142.75;100.00;78692.88;5054002;28;20024;-67
2022/02/23 02:55:16;;;;;;;12.05;2.30;;;;;;;-142.75;100.00;78686.97;5071847;28;20047;-67
2022/02/23 02:57:41;;;;;;;11.65;2.47;;;;;;;-142.75;100.00;78688.94;5071927;28;20016;-67
2022/02/23 03:00:08;;;;;;;16.70;2.45;;;;;;;-142.75;100.00;78692.88;5071333;28;20108;-67
2022/02/23 03:02:34;;;;;;;10.20;1.70;;;;;;;-142.75;100.00;78694.84;5071652;28;20063;-67
2022/02/23 03:04:59;;;;;;;;;;;;;;;-142.75;100.00;78688.94;5072131;28;20020;-68
2022/02/23 03:07:25;;;;;;;15.20;2.87;;;;;;;-142.75;100.00;78692.88;5071630;28;19919;-67
2022/02/23 03:09:50;;;;;;;13.30;2.22;;;;;;;-142.75;100.00;78696.81;5053117;28;20520;-70
2022/02/23 03:12:15;;;;;;;10.10;2.05;;;;;;;-142.75;100.00;78700.75;5071498;28;20425;-68
2022/02/23 03:14:41;;;;;;;14.10;2.35;;;;;;;-142.75;100.00;78698.78;5070570;28;20034;-67
2022/02/23 03:17:06;;;;;;;14.60;3.05;;;;;;;-142.75;100.00;78696.81;5071456;28;20066;-67
2022/02/23 03:19:32;;;;;;;11.65;2.20;;;;;;;-142.75;100.00;78694.84;5071155;28;20387;-66
2022/02/23 03:21:57;;;;;;;14.52;2.40;;;;;;;-142.75;100.00;78704.69;5071603;28;20375;-66
2022/02/23 03:24:22;;;;;;;13.20;2.35;;;;;;;-142.75;100.00;78710.59;5071365;28;20031;-69
2022/02/23 03:26:48;;;;;;;16.38;3.15;;;;;;;-142.75;100.00;78718.47;5071360;28;20060;-67
2022/02/23 03:29:13;;;;;;;14.88;2.30;;;;;;;-142.75;100.00;78712.56;5049574;28;20482;-67
2022/02/23 03:31:39;;;;;;;14.80;2.47;;;;;;;-142.75;100.00;78716.50;5051278;28;20541;-67
2022/02/23 03:34:05;;;;;;;12.77;2.67;;;;;;;-142.75;100.00;78724.38;5051261;28;20021;-67
2022/02/23 03:36:31;;;;;;;15.18;2.28;;;;;;;-142.75;100.00;78730.28;5051250;28;20028;-67
2022/02/23 03:38:56;;;;;;;7.88;2.10;;;;;;;-142.75;100.00;78732.25;5050850;28;20029;-67
2022/02/23 03:41:22;;;;;;;12.98;2.30;;;;;;;-142.75;100.00;78738.16;5051151;28;20021;-69
2022/02/23 03:43:48;;;;;;;12.77;2.20;;;;;;;-142.75;100.00;78730.28;5051038;28;20044;-67
2022/02/23 03:46:13;;;;;;;14.23;3.05;;;;;;;-142.75;100.00;78742.09;5051135;28;20513;-67
2022/02/23 03:48:39;;;;;;;6.85;1.83;;;;;;;-142.75;100.00;78746.03;5050659;28;20032;-67
2022/02/23 03:51:05;;;;;;;9.07;2.03;;;;;;;-142.75;100.00;78744.09;5050852;28;20017;-67
2022/02/23 03:53:31;;;;;;;11.43;2.07;;;;;;;-142.75;100.00;78751.97;5050844;28;20051;-67
2022/02/23 03:55:56;;;;;;;14.10;2.13;;;;;;;-142.75;100.00;78750.00;5033091;28;20048;-67
2022/02/23 03:58:21;;;;;;;12.87;2.23;;;;;;;-142.75;100.00;78751.97;5050507;28;20652;-67
2022/02/23 04:00:46;;;;;;;8.38;1.98;;;;;;;-142.75;100.00;78755.91;5050774;28;20039;-67
2022/02/23 04:03:12;;;;;;;15.40;2.05;;;;;;;-142.75;100.00;78755.91;5050858;28;20025;-67
2022/02/23 04:05:37;;;;;;;10.40;2.85;;;;;;;-142.75;100.00;78767.72;5050644;28;20027;-70
2022/02/23 04:08:02;;;;;;;20.42;2.40;;;;;;;-142.75;100.00;78767.72;5050587;28;20032;-68
2022/02/23 04:10:28;;;;;;;14.75;2.55;;;;;;;-142.75;100.00;78763.78;5071521;22;20031;-66
2022/02/23 04:12:53;;;;;;;15.17;2.37;;;;;;;-142.75;100.00;78767.72;5048780;28;20040;-67
2022/02/23 04:15:18;;;;;;;17.37;2.47;;;;;;;-142.75;100.00;78779.53;5049569;28;20275;-66
2022/02/23 04:17:44;;;;;;;16.48;2.40;;;;;;;-142.75;100.00;78783.47;5050627;28;20017;-66
2022/02/23 04:20:09;;;;;;;12.00;2.20;;;;;;;-142.75;100.00;78775.59;5050376;28;20051;-67
2022/02/23 04:22:36;;;;;;;12.00;1.92;;;;;;;-142.75;100.00;78779.53;5050660;28;20648;-67
2022/02/23 04:25:01;;;;;;;10.98;2.65;;;;;;;-142.75;100.00;78779.53;5050535;28;20021;-66
2022/02/23 04:27:26;;;;;;;14.38;2.65;;;;;;;-142.75;100.00;78789.38;5054501;28;20031;-67
2022/02/23 04:29:52;;;;;;;12.55;2.17;;;;;;;-142.75;100.00;78779.53;5054486;28;20481;-67
2022/02/23 04:32:17;;;;;;;20.42;2.88;;;;;;;-142.75;100.00;78787.41;5054675;28;20449;-66
2022/02/23 04:34:42;;;;;;;12.15;2.67;;;;;;;-142.75;100.00;78791.34;5073357;28;20086;-66
2022/02/23 04:37:07;;;;;;;12.15;1.85;;;;;;;-142.75;100.00;78793.31;5074640;28;20047;-67
2022/02/23 04:39:33;;;;;;;10.57;2.42;;;;;;;-142.75;100.00;78787.41;5074213;28;20072;-66
2022/02/23 04:41:58;;;;;;;11.30;1.98;;;;;;;-142.75;100.00;78783.47;5073234;28;20051;-66
2022/02/23 04:44:23;;;;;;;12.73;1.95;;;;;;;-142.75;100.00;78773.63;5074421;28;20025;-67
2022/02/23 04:46:49;;;;;;;9.30;1.85;;;;;;;-142.75;100.00;78781.50;5074466;28;20029;-67
2022/02/23 04:49:14;;;;;;;10.90;2.00;;;;;;;-142.75;100.00;78777.56;5074146;28;20028;-66
2022/02/23 04:51:39;;;;;;;13.93;2.13;;;;;;;-142.75;100.00;78763.78;5074134;28;20020;-67
2022/02/23 04:54:05;;;;;;;13.32;2.95;;;;;;;-142.75;100.00;78759.84;5074321;28;20278;-66
2022/02/23 04:56:30;;;;;;;13.63;3.15;;;;;;;-142.75;100.00;78761.81;5074219;28;20020;-66
2022/02/23 04:58:55;;;;;;;15.00;3.13;;;;;;;-142.75;100.00;78767.72;5074005;28;20028;-66
2022/02/23 05:01:21;;;;;;;10.32;2.92;;;;;;;-142.75;100.00;78773.63;5074172;28;20025;-66
2022/02/23 05:03:46;;;;;;;12.23;2.95;;;;;;;-142.75;100.00;78783.47;5073687;28;20028;-67
2022/02/23 05:06:11;;;;;;;17.67;3.80;;;;;;;-142.75;100.00;78785.44;5074141;28;20386;-67
2022/02/23 05:08:37;;;;;;;14.15;2.85;;;;;;;-142.75;100.00;78791.34;5073603;28;20327;-66
2022/02/23 05:11:03;;;;;;;19.52;3.65;;;;;;;-142.75;100.00;78789.38;5073685;28;20020;-66
2022/02/23 05:13:29;;;;;;;;;;;;;;;-142.75;100.00;78783.47;5074199;28;20075;-67
2022/02/23 05:15:57;;;;;;;15.23;3.83;;;;;;;-142.75;100.00;78783.47;5074212;28;20389;-66
2022/02/23 05:18:27;;;;;;;12.97;2.77;;;;;;;-142.75;100.00;78787.41;5073623;28;20024;-66
2022/02/23 05:21:02;;;;;;;11.70;2.80;;;;;;;-142.75;100.00;78791.34;5073701;28;20021;-67
2022/02/23 05:23:28;;;;;;;20.77;3.50;;;;;;;-142.75;100.00;78803.16;5073782;28;20024;-66
2022/02/23 05:25:54;;;;;;;20.87;3.43;;;;;;;-142.75;100.00;78803.16;5073505;28;20406;-67
2022/02/23 05:28:20;;;;;;;16.42;3.55;;;;;;;-142.75;100.00;78803.16;5073383;28;20027;-67
2022/02/23 05:30:45;;;;;;;21.35;3.72;;;;;;;-142.75;100.00;78803.16;5073420;28;20510;-66
2022/02/23 05:33:12;;;;;;;16.88;3.45;;;;;;;-142.75;100.00;78799.22;5073645;28;20115;-67
2022/02/23 05:35:39;;;;;;;17.30;3.20;;;;;;;-142.75;100.00;78799.22;5073492;28;20035;-67
2022/02/23 05:38:04;;;;;;;10.10;3.03;;;;;;;-142.75;100.00;78799.22;5072069;28;20486;-67
2022/02/23 05:40:30;;;;;;;15.50;4.35;;;;;;;-142.75;100.00;78822.88;5073200;28;20031;-67
2022/02/23 05:42:55;;;;;;;12.98;3.03;;;;;;;-142.75;100.00;78818.91;5073474;28;20040;-67
2022/02/23 05:45:21;;;;;;;19.08;3.63;;;;;;;-142.75;100.00;78840.59;5073411;28;20024;-66
2022/02/23 05:47:46;;;;;;;17.10;4.53;;;;;;;-142.75;100.00;78842.56;5073143;28;20458;-67
2022/02/23 05:50:12;;;;;;;11.68;3.17;;;;;;;-142.75;100.00;78854.38;5055220;28;20048;-67
2022/02/23 05:52:37;;;;;;;17.58;3.60;;;;;;;-142.75;100.00;78856.34;5053192;28;20056;-67
2022/02/23 05:55:06;;;;;;;13.60;2.80;;;;;;;-142.75;100.00;78860.28;5053122;28;20396;-66
2022/02/23 05:57:32;;;;;;;18.77;2.87;;;;;;;-142.75;100.00;78866.19;5053084;28;20271;-66
2022/02/23 05:59:58;;;;;;;12.53;2.80;;;;;;;-142.75;100.00;78874.06;5052784;28;20035;-66
2022/02/23 06:02:24;;;;;;;16.13;3.17;;;;;;;-142.75;100.00;78878.00;5053011;28;20029;-66
2022/02/23 06:04:49;;;;;;;10.70;2.75;;;;;;;-142.75;100.00;78883.91;5053146;28;20035;-66
2022/02/23 06:07:14;;;;;;;16.05;3.15;;;;;;;-142.75;100.00;78885.88;5052958;28;20112;-66
2022/02/23 06:09:40;;;;;;;13.73;2.50;;;;;;;-142.75;100.00;78883.91;5052479;28;20056;-66
2022/02/23 06:12:05;;;;;;;15.20;2.60;;;;;;;-142.75;100.00;78885.88;5052760;28;20379;-66
2022/02/23 06:14:31;;;;;;;11.82;2.97;;;;;;;-142.75;100.00;78883.91;5052846;28;20024;-67
2022/02/23 06:16:57;;;;;;;18.75;2.15;;;;;;;-142.75;100.00;78885.88;5052683;28;20032;-66
2022/02/23 06:19:22;;;;;;;16.33;2.78;;;;;;;-142.75;100.00;78881.94;5052548;28;20029;-66
2022/02/23 06:21:47;;;;;;;16.85;2.60;;;;;;;-142.75;100.00;78879.97;5056884;28;20020;-66
2022/02/23 06:24:13;;;;;;;14.77;2.50;;;;;;;-142.75;100.00;78885.88;5071296;28;20028;-66
2022/02/23 06:26:38;;;;;;;14.15;2.95;;;;;;;-142.75;100.00;78883.91;5072651;28;20032;-66
2022/02/23 06:29:03;;;;;;;9.40;1.97;;;;;;;-142.75;100.00;78893.78;5072146;28;20032;-66
2022/02/23 06:31:29;;;;;;;12.15;2.20;;;;;;;-142.75;100.00;78899.69;5072211;28;20688;-66
2022/02/23 06:33:54;;;;;;;16.47;2.57;;;;;;;-142.75;100.00;78901.66;5071375;28;20029;-66
2022/02/23 06:36:19;;;;;;;18.92;2.35;;;;;;;-142.75;100.00;78901.66;5072508;28;20316;-66
2022/02/23 06:38:45;;;;;;;15.63;2.63;;;;;;;-142.75;100.00;78897.72;5070753;28;20039;-66
2022/02/23 06:41:17;;;;;;;16.23;2.42;;;;;;;-142.75;100.00;78901.66;5062029;28;20021;-66
2022/02/23 06:43:43;;;;;;;16.80;3.43;;;;;;;-142.75;100.00;78909.53;5052351;28;20056;-66
2022/02/23 06:46:10;;;;;;;15.00;2.10;;;;;;;-142.75;100.00;78905.59;5061962;28;20032;-65
2022/02/23 06:48:36;;;;;;;18.33;2.83;;;;;;;-142.75;100.00;78901.66;5070591;28;20032;-66
2022/02/23 06:51:02;;;;;;;;;;;;;;;-142.75;100.00;78903.63;5059682;28;20020;-66
2022/02/23 06:53:27;;;;;;;15.70;2.77;;;;;;;-142.75;100.00;78899.69;5052030;28;20401;-66
2022/02/23 06:55:52;;;;;;;19.35;2.63;;;;;;;-142.75;100.00;78879.97;5052164;28;20036;-66
2022/02/23 06:58:18;;;;;;;7.93;1.98;;;;;;;-142.75;100.00;78874.06;5051731;28;20020;-66
2022/02/23 07:00:43;;;;;;;17.08;2.30;;;;;;;-142.75;100.00;78866.19;5051934;28;20039;-66
2022/02/23 07:03:08;;;;;;;17.30;2.58;;;;;;;-142.75;100.00;78850.44;5070121;28;20016;-66
2022/02/23 07:05:34;;;;;;;18.73;3.03;;;;;;;-142.75;100.00;78842.56;5071816;28;20090;-66
2022/02/23 07:08:04;;;;;;;21.02;3.35;;;;;;;-142.75;100.00;78832.72;5071321;28;20379;-66
2022/02/23 07:10:30;;;;;;;18.80;3.20;;;;;;;-142.75;100.00;78826.81;5071469;28;20020;-66
2022/02/23 07:12:57;;;;;;;16.77;3.40;;;;;;;-142.75;100.00;78824.84;5071654;28;20032;-66
2022/02/23 07:15:24;;;;;;;18.10;3.10;;;;;;;-142.75;100.00;78813.00;5071524;28;20042;-66
2022/02/23 07:17:50;;;;;;;21.03;3.83;;;;;;;-142.75;100.00;78797.25;5071324;28;20032;-65
2022/02/23 07:20:16;;;;;;;;;;;;;;;-142.75;100.00;78775.59;5071754;28;20044;-66
2022/02/23 07:22:41;;;;;;;20.80;2.87;;;;;;;-142.75;100.00;78759.84;5071361;28;19959;-66
2022/02/23 07:25:09;;;;;;;16.25;3.08;;;;;;;-142.75;100.00;78734.22;5071417;28;20077;-66
2022/02/23 07:27:34;;;;;;;22.23;3.40;;;;;;;-142.75;100.00;78708.63;5071312;28;20036;-66
2022/02/23 07:30:00;;;;;;;16.60;3.10;;;;;;;-142.75;100.00;78696.81;5071003;28;20426;-66
2022/02/23 07:32:31;;;;;;;11.32;2.70;;;;;;;-142.75;100.00;78667.25;5071104;28;20032;-66
2022/02/23 07:34:58;;;;;;;16.67;2.57;;;;;;;-142.75;100.00;78639.69;5071265;28;20073;-66
2022/02/23 07:37:23;;;;;;;15.70;3.67;;;;;;;-142.75;100.00;78621.97;5071169;28;20055;-67
2022/02/23 07:39:52;;;;;;;20.30;3.08;;;;;;;-142.75;100.00;78594.41;5070937;28;20040;-67
2022/02/23 07:42:18;;;;;;;16.90;3.13;;;;;;;-142.75;100.00;78582.59;5071076;28;20067;-66
2022/02/23 07:44:43;;;;;;;17.08;2.53;;;;;;;-142.75;100.00;78558.94;5071145;28;20032;-66
2022/02/23 07:47:09;;;;;;;16.17;2.13;;;;;;;-142.75;100.00;78547.13;5070193;28;20035;-67
2022/02/23 07:49:35;;;;;;;12.82;3.25;;;;;;;-142.75;100.00;78543.19;5069656;28;20033;-66
2022/02/23 07:52:02;;;;;;;11.07;2.22;;;;;;;-142.75;100.00;78529.41;5069870;28;20038;-66
2022/02/23 07:54:27;;;;;;;11.10;2.03;;;;;;;-142.75;100.00;78545.16;5070065;28;20032;-66
2022/02/23 07:56:53;;;;;;;13.00;2.63;;;;;;;-142.75;100.00;78556.97;5068594;28;20085;-66
2022/02/23 07:59:18;;;;;;;16.10;2.60;;;;;;;-142.75;100.00;78553.03;5069779;28;20039;-67
2022/02/23 08:01:44;;;;;;;9.27;2.40;;;;;;;-142.75;100.00;78568.78;5064105;28;20021;-68
2022/02/23 08:04:09;;;;;;;15.50;2.67;;;;;;;-142.75;100.00;78533.34;5049756;28;20098;-67
2022/02/23 08:06:35;;;;;;;17.17;2.60;;;;;;;-142.75;100.00;78486.06;5049399;28;20087;-68
2022/02/23 08:09:02;;;;;;;20.88;3.10;;;;;;;-142.75;100.00;78472.28;5049718;28;20021;-68
2022/02/23 08:11:29;;;;;;;13.70;2.70;;;;;;;-142.75;100.00;78413.22;5048871;28;20029;-67
2022/02/23 08:13:59;;;;;;;10.93;2.40;;;;;;;-142.75;100.00;78391.53;5049591;28;20115;-67
2022/02/23 08:19:31;;;;;;;11.40;2.60;;;;;;;-142.75;100.00;78306.88;5049443;28;20032;-67
2022/02/23 08:22:01;;;;;;;14.05;2.50;;;;;;;-142.75;100.00;78314.75;5049551;28;20497;-67
2022/02/23 08:24:27;;;;;;;10.43;2.75;;;;;;;-142.75;100.00;78295.06;5049558;28;20013;-67
2022/02/23 08:26:57;;;;;;;14.05;2.53;;;;;;;-142.75;100.00;78265.50;5049714;28;20025;-67
2022/02/23 08:29:24;;;;;;;13.20;2.80;;;;;;;-142.75;100.00;78239.91;5049362;28;20074;-67
2022/02/23 08:31:49;;;;;;;14.75;3.03;;;;;;;-142.75;100.00;78218.25;5049331;28;20549;-68
2022/02/23 08:34:15;;;;;;;11.57;3.60;;;;;;;-142.75;100.00;78235.97;5048203;28;20033;-68
2022/02/23 08:36:40;;;;;;;15.93;3.42;;;;;;;-142.75;100.00;78220.22;5048146;28;20075;-68
2022/02/23 08:39:07;;;;;;;12.50;2.33;;;;;;;-142.75;100.00;78192.66;5049400;28;20107;-67
2022/02/23 08:41:33;;;;;;;15.07;3.17;;;;;;;-142.75;100.00;78182.81;5056551;28;20470;-68
2022/02/23 08:43:58;;;;;;;13.32;2.67;;;;;;;-142.75;100.00;78151.28;5069450;28;20024;-68
2022/02/23 08:46:23;;;;;;;15.65;2.42;;;;;;;-142.75;100.00;78178.84;5069494;28;20035;-67
2022/02/23 08:48:49;;;;;;;11.73;2.30;;;;;;;-142.75;100.00;78188.72;5068071;28;20020;-66
2022/02/23 08:51:14;;;;;;;11.70;2.83;;;;;;;-142.75;100.00;78176.88;5069306;28;20467;-67
2022/02/23 08:53:39;;;;;;;16.70;3.45;;;;;;;-142.75;100.00;78239.91;5069626;28;20029;-68
2022/02/23 08:56:04;;;;;;;14.63;2.72;;;;;;;-142.75;100.00;78226.13;5069451;28;20174;-67
2022/02/23 08:58:30;;;;;;;17.23;3.03;;;;;;;-142.75;100.00;78293.06;5049377;28;20032;-68
2022/02/23 09:00:55;;;;;;;17.27;4.55;;;;;;;-142.75;100.00;78235.97;5053028;28;20025;-68
2022/02/23 09:03:22;;;;;;;11.65;3.47;;;;;;;-142.75;100.00;78186.75;5069106;28;20044;-69
2022/02/23 09:05:48;;;;;;;18.23;3.15;;;;;;;-142.75;100.00;78235.97;5069537;28;20474;-67
2022/02/23 09:08:13;;;;;;;20.60;3.65;;;;;;;-142.75;100.00;78232.03;5069018;28;20032;-68
2022/02/23 09:10:39;;;;;;;17.83;3.08;;;;;;;-142.75;100.00;78210.38;5068978;28;20020;-69
2022/02/23 09:13:05;;;;;;;11.65;2.90;;;;;;;-142.75;100.00;78188.72;5072055;28;20393;-68
2022/02/23 09:15:31;;;;;;;18.38;3.10;;;;;;;-142.75;100.00;78147.34;5072888;28;20059;-68
2022/02/23 09:17:56;;;;;;;22.85;3.63;;;;;;;-142.75;100.00;78170.97;5072470;28;21453;-68
2022/02/23 09:20:22;;;;;;;15.80;3.40;;;;;;;-142.75;100.00;78161.13;5072829;28;20021;-68
2022/02/23 09:22:47;;;;;;;19.98;3.30;;;;;;;-142.75;100.00;78129.63;5072764;28;20020;-68
2022/02/23 09:25:13;;;;;;;15.85;3.78;;;;;;;-142.75;100.00;78066.63;5072979;28;20028;-68
2022/02/23 09:27:39;;;;;;;16.40;3.75;;;;;;;-142.75;100.00;78019.34;5072762;28;20383;-68
2022/02/23 09:30:08;;;;;;;17.55;4.63;;;;;;;-142.75;100.00;78054.81;5071864;28;20027;-67
2022/02/23 09:32:33;;;;;;;15.38;4.18;;;;;;;-142.75;100.00;77999.66;5070926;28;20189;-68
2022/02/23 09:34:59;;;;;;;22.60;5.18;;;;;;;-142.75;100.00;77960.28;5072968;28;20051;-67
2022/02/23 09:37:24;;;;;;;16.50;4.40;;;;;;;-142.75;100.00;77995.72;5072461;28;20371;-67
2022/02/23 09:39:49;;;;;;;15.43;4.20;;;;;;;-142.75;100.00;78023.28;5072354;28;20583;-67
2022/02/23 09:42:15;;;;;;;16.63;5.13;;;;;;;-142.75;100.00;77948.47;5071219;28;20085;-67
2022/02/23 09:44:42;;;;;;;18.40;4.68;;;;;;;-142.75;100.00;77930.75;5072470;28;20035;-66
2022/02/23 09:47:09;;;;;;;12.07;4.00;;;;;;;-142.75;100.00;77932.72;5073101;28;20024;-67
2022/02/23 09:49:35;;;;;;;15.85;4.90;;;;;;;-142.75;100.00;77911.06;5073041;28;20074;-67
2022/02/23 09:52:01;;;;;;;18.10;4.40;;;;;;;-142.75;100.00;77920.91;5072335;28;20082;-68
2022/02/23 09:54:26;;;;;;;15.55;4.10;;;;;;;-142.75;100.00;77907.09;5072290;28;20028;-68
2022/02/23 09:56:52;;;;;;;14.88;4.00;;;;;;;-142.75;100.00;77909.06;5072195;28;20024;-69
2022/02/23 09:59:17;;;;;;;17.20;3.60;;;;;;;-142.75;100.00;77875.59;5072006;28;20032;-69
2022/02/23 10:01:44;;;;;;;20.60;4.50;;;;;;;-142.75;100.00;77881.50;5070573;28;20104;-69
2022/02/23 10:04:10;;;;;;;16.17;3.83;;;;;;;-142.75;100.00;77814.56;5070120;28;20083;-68
2022/02/23 10:06:37;;;;;;;14.02;4.00;;;;;;;-142.75;100.00;77832.28;5067238;28;20039;-69
2022/02/23 10:09:06;;;;;;;18.33;3.58;;;;;;;-142.75;100.00;77802.75;5048498;28;20025;-70
2022/02/23 10:11:33;;;;;;;16.42;4.35;;;;;;;-142.75;100.00;77777.16;5049193;28;20059;-68
2022/02/23 10:14:00;;;;;;;20.33;4.35;;;;;;;-142.75;100.00;77751.56;5048134;28;20033;-68
2022/02/23 10:16:39;;;;;;;12.05;4.10;;;;;;;-142.75;100.00;77704.28;5049542;28;20079;-69
2022/02/23 10:19:13;;;;;;;14.98;4.47;;;;;;;-142.75;100.00;77702.31;5051339;28;20520;-68
2022/02/23 10:21:49;;;;;;;13.68;3.97;;;;;;;-142.75;100.00;77676.72;5051101;28;20683;-69
2022/02/23 10:24:34;;;;;;;19.50;4.23;;;;;;;-142.75;100.00;77680.66;5051144;28;20056;-69
2022/02/23 10:27:04;;;;;;;14.07;3.58;;;;;;;-142.75;100.00;77659.00;5051714;28;20267;-69
2022/02/23 10:29:37;;;;;;;12.32;3.97;;;;;;;-142.75;100.00;77607.81;5052003;28;20627;-68
2022/02/23 10:32:10;;;;;;;22.65;4.25;;;;;;;-142.75;100.00;77596.00;5051316;28;20033;-68
2022/02/23 10:34:42;;;;;;;15.82;4.97;;;;;;;-142.75;100.00;77662.94;5051534;28;20112;-68
2022/02/23 10:37:08;;;;;;;13.70;3.45;;;;;;;-142.75;100.00;77755.50;5051940;28;20074;-68
2022/02/23 10:40:01;;;;;;;13.68;3.60;;;;;;;-142.75;100.00;77832.28;5051262;28;20037;-67
2022/02/23 10:42:29;;;;;;;15.38;3.35;;;;;;;-142.75;100.00;77767.31;5050957;28;20047;-67
2022/02/23 10:44:56;;;;;;;15.35;3.60;;;;;;;-142.75;100.00;77751.56;5051297;28;20437;-67
2022/02/23 10:47:23;;;;;;;13.88;3.15;;;;;;;-142.75;100.00;77765.34;5050703;28;20116;-67
2022/02/23 10:50:02;;;;;;;14.85;3.08;;;;;;;-142.75;100.00;77688.53;5051325;28;20438;-69
2022/02/23 10:52:32;;;;;;;14.25;3.42;;;;;;;-142.75;100.00;77731.88;5051201;28;20036;-68
2022/02/23 10:55:31;;;;;;;17.55;3.45;;;;;;;-142.75;100.00;77747.63;5049903;28;20029;-67
2022/02/23 10:57:59;;;;;;;15.75;3.22;;;;;;;-142.75;100.00;77759.44;5049523;28;20051;-69
2022/02/23 11:00:34;;;;;;;10.75;2.70;;;;;;;-142.75;100.00;77710.19;5051298;28;20029;-69